sensor_id;sensor_type;location;lat;lon;timestamp;pressure;altitude;pressure_sealevel;temperature;humidity
34454;BME280;60061;52.080;5.312;2022-08-02T00:00:03;101853.0;;;14.87;81.09
34454;BME280;60061;52.080;5.312;2022-08-02T00:01:52;101855.0;;;14.81;80.74
34454;BME280;60061;52.080;5.312;2022-08-02T00:03:38;101849.0;;;14.84;81.45
34454;BME280;60061;52.080;5.312;2022-08-02T00:05:25;101849.0;;;14.78;81.3
34454;BME280;60061;52.080;5.312;2022-08-02T00:08:59;101848.0;;;14.76;82.46
34454;BME280;60061;52.080;5.312;2022-08-02T00:10:47;101848.0;;;14.8;81.38
34454;BME280;60061;52.080;5.312;2022-08-02T00:12:34;101840.0;;;14.78;81.25
34454;BME280;60061;52.080;5.312;2022-08-02T00:14:21;101842.0;;;14.73;81.93
34454;BME280;60061;52.080;5.312;2022-08-02T00:16:08;101847.0;;;14.66;82.27
34454;BME280;60061;52.080;5.312;2022-08-02T00:19:43;101844.0;;;14.62;81.77
34454;BME280;60061;52.080;5.312;2022-08-02T00:21:30;101843.0;;;14.72;81.41
34454;BME280;60061;52.080;5.312;2022-08-02T00:23:17;101842.0;;;14.73;82.04
34454;BME280;60061;52.080;5.312;2022-08-02T00:25:05;101844.0;;;14.73;81.69
34454;BME280;60061;52.080;5.312;2022-08-02T00:26:52;101838.0;;;14.76;81.3
34454;BME280;60061;52.080;5.312;2022-08-02T00:32:11;101830.0;;;14.75;81.8
34454;BME280;60061;52.080;5.312;2022-08-02T00:33:57;101828.0;;;14.75;82.37
34454;BME280;60061;52.080;5.312;2022-08-02T00:35:46;101826.0;;;14.72;81.41
34454;BME280;60061;52.080;5.312;2022-08-02T00:37:37;101821.0;;;14.73;81.2
34454;BME280;60061;52.080;5.312;2022-08-02T00:39:24;101818.0;;;14.67;82.2
34454;BME280;60061;52.080;5.312;2022-08-02T00:41:11;101822.0;;;14.59;81.95
34454;BME280;60061;52.080;5.312;2022-08-02T00:44:47;101818.0;;;14.59;81.22
34454;BME280;60061;52.080;5.312;2022-08-02T00:46:33;101819.0;;;14.5;83.66
34454;BME280;60061;52.080;5.312;2022-08-02T00:48:19;101820.0;;;14.4;84.82
34454;BME280;60061;52.080;5.312;2022-08-02T00:50:06;101822.0;;;14.37;83.46
34454;BME280;60061;52.080;5.312;2022-08-02T00:51:53;101820.0;;;14.34;84.75
34454;BME280;60061;52.080;5.312;2022-08-02T00:53:39;101821.0;;;14.31;83.51
34454;BME280;60061;52.080;5.312;2022-08-02T00:57:12;101821.0;;;14.35;82.96
34454;BME280;60061;52.080;5.312;2022-08-02T00:58:59;101813.0;;;14.43;82.33
34454;BME280;60061;52.080;5.312;2022-08-02T01:00:46;101812.0;;;14.48;82.48
34454;BME280;60061;52.080;5.312;2022-08-02T01:02:33;101811.0;;;14.48;82.19
34454;BME280;60061;52.080;5.312;2022-08-02T01:04:19;101814.0;;;14.45;82.92
34454;BME280;60061;52.080;5.312;2022-08-02T01:06:05;101809.0;;;14.38;84.61
34454;BME280;60061;52.080;5.312;2022-08-02T01:09:39;101807.0;;;14.34;84.49
34454;BME280;60061;52.080;5.312;2022-08-02T01:11:26;101805.0;;;14.33;84.23
34454;BME280;60061;52.080;5.312;2022-08-02T01:13:13;101801.0;;;14.3;83.88
34454;BME280;60061;52.080;5.312;2022-08-02T01:15:02;101802.0;;;14.28;83.64
34454;BME280;60061;52.080;5.312;2022-08-02T01:16:59;101797.0;;;14.26;84.44
34454;BME280;60061;52.080;5.312;2022-08-02T01:18:52;101794.0;;;14.27;83.56
34454;BME280;60061;52.080;5.312;2022-08-02T01:21:00;101796.0;;;14.33;83.03
34454;BME280;60061;52.080;5.312;2022-08-02T01:23:31;101792.0;;;14.37;83.47
34454;BME280;60061;52.080;5.312;2022-08-02T01:25:36;101785.0;;;14.4;82.12
34454;BME280;60061;52.080;5.312;2022-08-02T01:27:39;101780.0;;;14.44;81.84
34454;BME280;60061;52.080;5.312;2022-08-02T01:29:34;101780.0;;;14.44;82.15
34454;BME280;60061;52.080;5.312;2022-08-02T01:31:26;101776.0;;;14.44;82.18
34454;BME280;60061;52.080;5.312;2022-08-02T01:33:22;101780.0;;;14.45;81.55
34454;BME280;60061;52.080;5.312;2022-08-02T01:37:08;101780.0;;;14.42;82.24
34454;BME280;60061;52.080;5.312;2022-08-02T01:38:58;101784.0;;;14.38;82.53
34454;BME280;60061;52.080;5.312;2022-08-02T01:40:47;101784.0;;;14.42;84.0
34454;BME280;60061;52.080;5.312;2022-08-02T01:42:40;101778.0;;;14.38;83.36
34454;BME280;60061;52.080;5.312;2022-08-02T01:44:32;101775.0;;;14.42;84.22
34454;BME280;60061;52.080;5.312;2022-08-02T01:46:24;101780.0;;;14.49;83.63
34454;BME280;60061;52.080;5.312;2022-08-02T01:48:13;101781.0;;;14.52;83.2
34454;BME280;60061;52.080;5.312;2022-08-02T01:50:03;101781.0;;;14.58;82.3
34454;BME280;60061;52.080;5.312;2022-08-02T01:54:18;101781.0;;;14.61;84.79
34454;BME280;60061;52.080;5.312;2022-08-02T01:57:58;101775.0;;;14.63;83.99
34454;BME280;60061;52.080;5.312;2022-08-02T01:59:49;101780.0;;;14.68;84.96
34454;BME280;60061;52.080;5.312;2022-08-02T02:01:37;101778.0;;;14.71;84.11
34454;BME280;60061;52.080;5.312;2022-08-02T02:03:26;101774.0;;;14.77;84.17
34454;BME280;60061;52.080;5.312;2022-08-02T02:05:15;101780.0;;;14.85;82.67
34454;BME280;60061;52.080;5.312;2022-08-02T02:07:08;101776.0;;;15.07;82.57
34454;BME280;60061;52.080;5.312;2022-08-02T02:08:58;101772.0;;;15.03;82.79
34454;BME280;60061;52.080;5.312;2022-08-02T02:12:33;101770.0;;;15.02;82.39
34454;BME280;60061;52.080;5.312;2022-08-02T02:14:23;101767.0;;;15.12;81.2
34454;BME280;60061;52.080;5.312;2022-08-02T02:16:11;101769.0;;;15.26;82.49
34454;BME280;60061;52.080;5.312;2022-08-02T02:18:01;101769.0;;;15.24;81.38
34454;BME280;60061;52.080;5.312;2022-08-02T02:19:48;101765.0;;;15.23;82.49
34454;BME280;60061;52.080;5.312;2022-08-02T02:21:38;101762.0;;;15.19;81.05
34454;BME280;60061;52.080;5.312;2022-08-02T02:25:13;101762.0;;;15.15;82.05
34454;BME280;60061;52.080;5.312;2022-08-02T02:27:02;101756.0;;;15.12;82.62
34454;BME280;60061;52.080;5.312;2022-08-02T02:28:52;101758.0;;;15.1;84.0
34454;BME280;60061;52.080;5.312;2022-08-02T02:30:44;101751.0;;;15.01;83.66
34454;BME280;60061;52.080;5.312;2022-08-02T02:32:34;101755.0;;;14.94;84.52
34454;BME280;60061;52.080;5.312;2022-08-02T02:34:27;101750.0;;;14.91;85.16
34454;BME280;60061;52.080;5.312;2022-08-02T02:36:15;101750.0;;;14.85;84.24
34454;BME280;60061;52.080;5.312;2022-08-02T02:40:04;101756.0;;;14.86;83.77
34454;BME280;60061;52.080;5.312;2022-08-02T02:41:52;101751.0;;;14.81;84.5
34454;BME280;60061;52.080;5.312;2022-08-02T02:43:42;101747.0;;;14.81;83.36
34454;BME280;60061;52.080;5.312;2022-08-02T02:45:30;101745.0;;;14.81;83.73
34454;BME280;60061;52.080;5.312;2022-08-02T02:47:20;101741.0;;;14.91;83.56
34454;BME280;60061;52.080;5.312;2022-08-02T02:49:07;101742.0;;;14.94;82.96
34454;BME280;60061;52.080;5.312;2022-08-02T02:50:57;101738.0;;;14.94;83.5
34454;BME280;60061;52.080;5.312;2022-08-02T02:52:46;101735.0;;;14.91;84.43
34454;BME280;60061;52.080;5.312;2022-08-02T02:56:23;101730.0;;;14.91;84.37
34454;BME280;60061;52.080;5.312;2022-08-02T02:58:11;101736.0;;;14.93;83.95
34454;BME280;60061;52.080;5.312;2022-08-02T02:59:59;101732.0;;;14.84;85.42
34454;BME280;60061;52.080;5.312;2022-08-02T03:01:46;101740.0;;;14.8;86.3
34454;BME280;60061;52.080;5.312;2022-08-02T03:03:33;101746.0;;;14.77;86.55
34454;BME280;60061;52.080;5.312;2022-08-02T03:05:20;101736.0;;;14.76;86.6
34454;BME280;60061;52.080;5.312;2022-08-02T03:08:54;101743.0;;;14.79;86.24
34454;BME280;60061;52.080;5.312;2022-08-02T03:10:42;101743.0;;;14.76;86.62
34454;BME280;60061;52.080;5.312;2022-08-02T03:12:31;101743.0;;;14.79;86.74
34454;BME280;60061;52.080;5.312;2022-08-02T03:14:19;101736.0;;;14.82;86.69
34454;BME280;60061;52.080;5.312;2022-08-02T03:16:06;101740.0;;;14.87;86.35
34454;BME280;60061;52.080;5.312;2022-08-02T03:17:53;101745.0;;;14.93;85.28
34454;BME280;60061;52.080;5.312;2022-08-02T03:21:25;101738.0;;;15.0;83.51
34454;BME280;60061;52.080;5.312;2022-08-02T03:23:12;101733.0;;;15.08;84.62
34454;BME280;60061;52.080;5.312;2022-08-02T03:24:58;101728.0;;;15.15;83.48
34454;BME280;60061;52.080;5.312;2022-08-02T03:26:44;101732.0;;;15.26;82.89
34454;BME280;60061;52.080;5.312;2022-08-02T03:28:32;101741.0;;;15.33;83.91
34454;BME280;60061;52.080;5.312;2022-08-02T03:32:05;101732.0;;;15.38;84.48
34454;BME280;60061;52.080;5.312;2022-08-02T03:33:53;101723.0;;;15.44;84.3
34454;BME280;60061;52.080;5.312;2022-08-02T03:35:41;101714.0;;;15.5;83.82
34454;BME280;60061;52.080;5.312;2022-08-02T03:37:29;101717.0;;;15.52;83.78
34454;BME280;60061;52.080;5.312;2022-08-02T03:39:18;101715.0;;;15.56;84.66
34454;BME280;60061;52.080;5.312;2022-08-02T03:41:06;101709.0;;;15.59;83.34
34454;BME280;60061;52.080;5.312;2022-08-02T03:44:41;101702.0;;;15.58;83.39
34454;BME280;60061;52.080;5.312;2022-08-02T03:46:29;101695.0;;;15.64;83.01
34454;BME280;60061;52.080;5.312;2022-08-02T03:48:17;101698.0;;;15.65;83.18
34454;BME280;60061;52.080;5.312;2022-08-02T03:50:06;101694.0;;;15.66;83.7
34454;BME280;60061;52.080;5.312;2022-08-02T03:51:55;101693.0;;;15.62;83.1
34454;BME280;60061;52.080;5.312;2022-08-02T03:53:42;101694.0;;;15.62;82.4
34454;BME280;60061;52.080;5.312;2022-08-02T03:57:16;101691.0;;;15.55;84.73
34454;BME280;60061;52.080;5.312;2022-08-02T03:59:05;101693.0;;;15.55;82.36
34454;BME280;60061;52.080;5.312;2022-08-02T04:00:56;101698.0;;;15.56;83.08
34454;BME280;60061;52.080;5.312;2022-08-02T04:02:43;101702.0;;;15.55;83.74
34454;BME280;60061;52.080;5.312;2022-08-02T04:04:30;101703.0;;;15.58;83.63
34454;BME280;60061;52.080;5.312;2022-08-02T04:06:16;101705.0;;;15.54;84.3
34454;BME280;60061;52.080;5.312;2022-08-02T04:09:48;101700.0;;;15.58;81.93
34454;BME280;60061;52.080;5.312;2022-08-02T04:11:34;101701.0;;;15.62;81.87
34454;BME280;60061;52.080;5.312;2022-08-02T04:13:22;101703.0;;;15.6;82.29
34454;BME280;60061;52.080;5.312;2022-08-02T04:15:11;101699.0;;;15.57;82.48
34454;BME280;60061;52.080;5.312;2022-08-02T04:17:03;101698.0;;;15.58;82.51
34454;BME280;60061;52.080;5.312;2022-08-02T04:18:59;101698.0;;;15.58;81.84
34454;BME280;60061;52.080;5.312;2022-08-02T04:20:48;101701.0;;;15.63;81.36
34454;BME280;60061;52.080;5.312;2022-08-02T04:24:36;101700.0;;;15.65;80.61
34454;BME280;60061;52.080;5.312;2022-08-02T04:26:26;101701.0;;;15.68;79.88
34454;BME280;60061;52.080;5.312;2022-08-02T04:28:15;101701.0;;;15.67;80.08
34454;BME280;60061;52.080;5.312;2022-08-02T04:30:03;101700.0;;;15.7;79.91
34454;BME280;60061;52.080;5.312;2022-08-02T04:31:51;101705.0;;;15.7;79.69
34454;BME280;60061;52.080;5.312;2022-08-02T04:33:38;101708.0;;;15.72;79.87
34454;BME280;60061;52.080;5.312;2022-08-02T04:35:24;101710.0;;;15.75;79.61
34454;BME280;60061;52.080;5.312;2022-08-02T04:38:59;101713.0;;;15.76;79.19
34454;BME280;60061;52.080;5.312;2022-08-02T04:40:49;101709.0;;;15.77;78.87
34454;BME280;60061;52.080;5.312;2022-08-02T04:42:38;101705.0;;;15.78;79.19
34454;BME280;60061;52.080;5.312;2022-08-02T04:44:25;101703.0;;;15.8;79.33
34454;BME280;60061;52.080;5.312;2022-08-02T04:46:12;101703.0;;;15.87;78.77
34454;BME280;60061;52.080;5.312;2022-08-02T04:47:58;101702.0;;;15.87;79.17
34454;BME280;60061;52.080;5.312;2022-08-02T04:51:33;101699.0;;;15.96;79.13
34454;BME280;60061;52.080;5.312;2022-08-02T04:53:20;101701.0;;;15.9;79.5
34454;BME280;60061;52.080;5.312;2022-08-02T04:55:08;101693.0;;;15.96;79.31
34454;BME280;60061;52.080;5.312;2022-08-02T04:56:54;101693.0;;;16.02;78.83
34454;BME280;60061;52.080;5.312;2022-08-02T04:58:40;101697.0;;;16.09;78.91
34454;BME280;60061;52.080;5.312;2022-08-02T05:00:27;101688.0;;;16.2;78.33
34454;BME280;60061;52.080;5.312;2022-08-02T05:04:02;101685.0;;;16.37;77.78
34454;BME280;60061;52.080;5.312;2022-08-02T05:05:49;101686.0;;;16.46;77.33
34454;BME280;60061;52.080;5.312;2022-08-02T05:07:35;101681.0;;;16.78;76.44
34454;BME280;60061;52.080;5.312;2022-08-02T05:09:21;101682.0;;;16.95;74.69
34454;BME280;60061;52.080;5.312;2022-08-02T05:11:07;101674.0;;;17.06;75.16
34454;BME280;60061;52.080;5.312;2022-08-02T05:12:54;101669.0;;;17.16;74.81
34454;BME280;60061;52.080;5.312;2022-08-02T05:16:27;101667.0;;;17.37;73.81
34454;BME280;60061;52.080;5.312;2022-08-02T05:18:13;101666.0;;;17.48;73.25
34454;BME280;60061;52.080;5.312;2022-08-02T05:19:59;101664.0;;;17.68;72.5
34454;BME280;60061;52.080;5.312;2022-08-02T05:23:33;101665.0;;;17.93;71.41
34454;BME280;60061;52.080;5.312;2022-08-02T05:27:05;101664.0;;;18.16;71.16
34454;BME280;60061;52.080;5.312;2022-08-02T05:28:51;101667.0;;;18.34;70.11
34454;BME280;60061;52.080;5.312;2022-08-02T05:30:38;101669.0;;;18.43;69.63
34454;BME280;60061;52.080;5.312;2022-08-02T05:32:25;101673.0;;;18.45;69.44
34454;BME280;60061;52.080;5.312;2022-08-02T05:34:12;101675.0;;;18.47;68.92
34454;BME280;60061;52.080;5.312;2022-08-02T05:35:58;101683.0;;;18.63;69.12
34454;BME280;60061;52.080;5.312;2022-08-02T05:39:31;101683.0;;;18.84;68.61
34454;BME280;60061;52.080;5.312;2022-08-02T05:41:18;101683.0;;;18.93;68.28
34454;BME280;60061;52.080;5.312;2022-08-02T05:43:10;101688.0;;;18.91;68.02
34454;BME280;60061;52.080;5.312;2022-08-02T05:44:57;101691.0;;;18.95;68.08
34454;BME280;60061;52.080;5.312;2022-08-02T05:46:45;101691.0;;;18.91;68.23
34454;BME280;60061;52.080;5.312;2022-08-02T05:48:32;101689.0;;;18.84;68.77
34454;BME280;60061;52.080;5.312;2022-08-02T05:52:12;101695.0;;;18.73;69.41
34454;BME280;60061;52.080;5.312;2022-08-02T05:54:09;101692.0;;;18.54;69.62
34454;BME280;60061;52.080;5.312;2022-08-02T05:56:02;101694.0;;;18.54;70.95
34454;BME280;60061;52.080;5.312;2022-08-02T05:58:01;101691.0;;;18.5;70.44
34454;BME280;60061;52.080;5.312;2022-08-02T06:00:00;101688.0;;;18.68;70.25
34454;BME280;60061;52.080;5.312;2022-08-02T06:01:55;101691.0;;;18.5;70.95
34454;BME280;60061;52.080;5.312;2022-08-02T06:03:49;101689.0;;;18.41;71.55
34454;BME280;60061;52.080;5.312;2022-08-02T06:05:39;101684.0;;;18.32;72.19
34454;BME280;60061;52.080;5.312;2022-08-02T06:07:28;101686.0;;;18.41;71.97
34454;BME280;60061;52.080;5.312;2022-08-02T06:11:04;101681.0;;;18.43;71.73
34454;BME280;60061;52.080;5.312;2022-08-02T06:13:00;101681.0;;;18.41;72.36
34454;BME280;60061;52.080;5.312;2022-08-02T06:14:51;101673.0;;;18.39;72.69
34454;BME280;60061;52.080;5.312;2022-08-02T06:16:39;101676.0;;;18.41;72.52
34454;BME280;60061;52.080;5.312;2022-08-02T06:18:30;101680.0;;;18.43;72.53
34454;BME280;60061;52.080;5.312;2022-08-02T06:20:19;101683.0;;;18.47;73.22
34454;BME280;60061;52.080;5.312;2022-08-02T06:22:15;101674.0;;;18.57;72.8
34454;BME280;60061;52.080;5.312;2022-08-02T06:24:02;101665.0;;;18.52;73.16
34454;BME280;60061;52.080;5.312;2022-08-02T06:27:39;101661.0;;;18.62;73.11
34454;BME280;60061;52.080;5.312;2022-08-02T06:29:28;101669.0;;;18.61;72.81
34454;BME280;60061;52.080;5.312;2022-08-02T06:31:16;101676.0;;;18.72;72.66
34454;BME280;60061;52.080;5.312;2022-08-02T06:33:03;101678.0;;;18.68;74.2
34454;BME280;60061;52.080;5.312;2022-08-02T06:34:49;101682.0;;;18.7;73.84
34454;BME280;60061;52.080;5.312;2022-08-02T06:36:39;101678.0;;;18.75;73.56
34454;BME280;60061;52.080;5.312;2022-08-02T06:40:29;101680.0;;;18.78;74.09
34454;BME280;60061;52.080;5.312;2022-08-02T06:42:20;101680.0;;;18.86;74.03
34454;BME280;60061;52.080;5.312;2022-08-02T06:44:15;101681.0;;;18.96;73.52
34454;BME280;60061;52.080;5.312;2022-08-02T06:46:03;101680.0;;;19.05;73.69
34454;BME280;60061;52.080;5.312;2022-08-02T06:47:50;101674.0;;;19.2;73.55
34454;BME280;60061;52.080;5.312;2022-08-02T06:49:36;101661.0;;;19.25;73.86
34454;BME280;60061;52.080;5.312;2022-08-02T06:51:23;101653.0;;;19.34;73.08
34454;BME280;60061;52.080;5.312;2022-08-02T06:54:58;101651.0;;;19.43;73.14
34454;BME280;60061;52.080;5.312;2022-08-02T06:56:45;101655.0;;;19.55;73.22
34454;BME280;60061;52.080;5.312;2022-08-02T06:58:32;101655.0;;;19.79;72.37
34454;BME280;60061;52.080;5.312;2022-08-02T07:00:18;101653.0;;;20.0;72.14
34454;BME280;60061;52.080;5.312;2022-08-02T07:02:04;101646.0;;;20.02;72.67
34454;BME280;60061;52.080;5.312;2022-08-02T07:03:50;101644.0;;;20.2;72.72
34454;BME280;60061;52.080;5.312;2022-08-02T07:07:25;101646.0;;;20.27;71.77
34454;BME280;60061;52.080;5.312;2022-08-02T07:09:11;101645.0;;;20.34;71.59
34454;BME280;60061;52.080;5.312;2022-08-02T07:10:58;101644.0;;;20.58;70.75
34454;BME280;60061;52.080;5.312;2022-08-02T07:12:44;101644.0;;;20.74;71.61
34454;BME280;60061;52.080;5.312;2022-08-02T07:14:30;101645.0;;;20.85;71.16
34454;BME280;60061;52.080;5.312;2022-08-02T07:18:03;101644.0;;;20.99;70.55
34454;BME280;60061;52.080;5.312;2022-08-02T07:19:50;101652.0;;;20.94;69.66
34454;BME280;60061;52.080;5.312;2022-08-02T07:21:36;101652.0;;;20.97;70.25
34454;BME280;60061;52.080;5.312;2022-08-02T07:23:22;101650.0;;;20.96;71.44
34454;BME280;60061;52.080;5.312;2022-08-02T07:25:09;101650.0;;;20.99;70.69
34454;BME280;60061;52.080;5.312;2022-08-02T07:26:56;101648.0;;;21.15;72.02
34454;BME280;60061;52.080;5.312;2022-08-02T07:30:31;101648.0;;;21.13;70.3
34454;BME280;60061;52.080;5.312;2022-08-02T07:32:18;101656.0;;;21.1;72.13
34454;BME280;60061;52.080;5.312;2022-08-02T07:34:06;101648.0;;;21.11;70.78
34454;BME280;60061;52.080;5.312;2022-08-02T07:35:53;101650.0;;;21.23;71.98
34454;BME280;60061;52.080;5.312;2022-08-02T07:37:42;101648.0;;;21.29;70.42
34454;BME280;60061;52.080;5.312;2022-08-02T07:39:29;101643.0;;;21.39;71.03
34454;BME280;60061;52.080;5.312;2022-08-02T07:43:02;101643.0;;;21.47;70.77
34454;BME280;60061;52.080;5.312;2022-08-02T07:44:48;101632.0;;;21.55;71.03
34454;BME280;60061;52.080;5.312;2022-08-02T07:46:35;101628.0;;;21.72;70.55
34454;BME280;60061;52.080;5.312;2022-08-02T07:48:21;101630.0;;;21.84;71.22
34454;BME280;60061;52.080;5.312;2022-08-02T07:50:08;101627.0;;;21.8;70.45
34454;BME280;60061;52.080;5.312;2022-08-02T07:51:56;101622.0;;;22.07;72.61
34454;BME280;60061;52.080;5.312;2022-08-02T07:55:29;101622.0;;;22.18;70.22
34454;BME280;60061;52.080;5.312;2022-08-02T07:57:15;101626.0;;;22.21;70.45
34454;BME280;60061;52.080;5.312;2022-08-02T07:59:02;101621.0;;;22.35;72.37
34454;BME280;60061;52.080;5.312;2022-08-02T08:00:49;101618.0;;;22.48;70.3
34454;BME280;60061;52.080;5.312;2022-08-02T08:02:35;101616.0;;;22.54;71.5
34454;BME280;60061;52.080;5.312;2022-08-02T08:06:09;101616.0;;;22.69;71.45
34454;BME280;60061;52.080;5.312;2022-08-02T08:07:56;101623.0;;;22.6;70.44
34454;BME280;60061;52.080;5.312;2022-08-02T08:09:43;101626.0;;;22.59;70.7
34454;BME280;60061;52.080;5.312;2022-08-02T08:11:29;101623.0;;;22.66;70.31
34454;BME280;60061;52.080;5.312;2022-08-02T08:13:15;101621.0;;;22.64;70.52
34454;BME280;60061;52.080;5.312;2022-08-02T08:15:03;101626.0;;;22.62;70.66
34454;BME280;60061;52.080;5.312;2022-08-02T08:18:37;101627.0;;;22.65;69.95
34454;BME280;60061;52.080;5.312;2022-08-02T08:20:24;101630.0;;;22.69;70.42
34454;BME280;60061;52.080;5.312;2022-08-02T08:22:10;101631.0;;;22.82;69.66
34454;BME280;60061;52.080;5.312;2022-08-02T08:23:56;101631.0;;;23.0;69.75
34454;BME280;60061;52.080;5.312;2022-08-02T08:25:43;101635.0;;;22.99;69.34
34454;BME280;60061;52.080;5.312;2022-08-02T08:27:29;101636.0;;;22.98;69.44
34454;BME280;60061;52.080;5.312;2022-08-02T08:31:04;101618.0;;;23.05;69.17
34454;BME280;60061;52.080;5.312;2022-08-02T08:32:50;101616.0;;;23.08;68.7
34454;BME280;60061;52.080;5.312;2022-08-02T08:34:36;101621.0;;;23.36;69.95
34454;BME280;60061;52.080;5.312;2022-08-02T08:36:22;101623.0;;;23.4;68.53
34454;BME280;60061;52.080;5.312;2022-08-02T08:38:10;101621.0;;;23.44;68.1
34454;BME280;60061;52.080;5.312;2022-08-02T08:41:42;101622.0;;;23.34;67.61
34454;BME280;60061;52.080;5.312;2022-08-02T08:43:29;101625.0;;;23.54;69.27
34454;BME280;60061;52.080;5.312;2022-08-02T08:45:17;101624.0;;;23.59;66.94
34454;BME280;60061;52.080;5.312;2022-08-02T08:47:04;101617.0;;;23.54;66.97
34454;BME280;60061;52.080;5.312;2022-08-02T08:48:52;101619.0;;;23.63;67.52
34454;BME280;60061;52.080;5.312;2022-08-02T08:50:45;101612.0;;;23.74;67.74
34454;BME280;60061;52.080;5.312;2022-08-02T08:52:40;101622.0;;;23.85;68.62
34454;BME280;60061;52.080;5.312;2022-08-02T08:56:28;101620.0;;;23.82;66.94
34454;BME280;60061;52.080;5.312;2022-08-02T08:58:18;101614.0;;;23.91;67.52
34454;BME280;60061;52.080;5.312;2022-08-02T09:00:06;101613.0;;;23.94;66.05
34454;BME280;60061;52.080;5.312;2022-08-02T09:01:55;101615.0;;;24.0;66.58
34454;BME280;60061;52.080;5.312;2022-08-02T09:03:43;101615.0;;;23.96;66.3
34454;BME280;60061;52.080;5.312;2022-08-02T09:05:33;101624.0;;;24.04;66.23
34454;BME280;60061;52.080;5.312;2022-08-02T09:07:21;101618.0;;;24.06;66.12
34454;BME280;60061;52.080;5.312;2022-08-02T09:10:54;101615.0;;;24.19;66.91
34454;BME280;60061;52.080;5.312;2022-08-02T09:12:40;101616.0;;;24.3;65.87
34454;BME280;60061;52.080;5.312;2022-08-02T09:14:28;101623.0;;;24.42;64.6
34454;BME280;60061;52.080;5.312;2022-08-02T09:16:15;101624.0;;;24.49;64.67
34454;BME280;60061;52.080;5.312;2022-08-02T09:18:13;101632.0;;;24.48;64.58
34454;BME280;60061;52.080;5.312;2022-08-02T09:20:06;101633.0;;;24.38;64.0
34454;BME280;60061;52.080;5.312;2022-08-02T09:22:00;101630.0;;;24.49;65.97
34454;BME280;60061;52.080;5.312;2022-08-02T09:25:37;101623.0;;;24.57;65.05
34454;BME280;60061;52.080;5.312;2022-08-02T09:27:23;101626.0;;;24.66;64.72
34454;BME280;60061;52.080;5.312;2022-08-02T09:29:10;101630.0;;;24.8;65.16
34454;BME280;60061;52.080;5.312;2022-08-02T09:31:03;101627.0;;;24.9;64.7
34454;BME280;60061;52.080;5.312;2022-08-02T09:32:50;101623.0;;;24.95;65.14
34454;BME280;60061;52.080;5.312;2022-08-02T09:34:46;101625.0;;;25.04;65.2
34454;BME280;60061;52.080;5.312;2022-08-02T09:36:38;101622.0;;;25.18;64.75
34454;BME280;60061;52.080;5.312;2022-08-02T09:40:13;101632.0;;;25.24;63.56
34454;BME280;60061;52.080;5.312;2022-08-02T09:42:07;101630.0;;;25.2;63.77
34454;BME280;60061;52.080;5.312;2022-08-02T09:43:54;101627.0;;;25.21;64.36
34454;BME280;60061;52.080;5.312;2022-08-02T09:45:42;101630.0;;;25.26;64.98
34454;BME280;60061;52.080;5.312;2022-08-02T09:47:29;101626.0;;;25.28;63.55
34454;BME280;60061;52.080;5.312;2022-08-02T09:49:17;101627.0;;;25.29;63.9
34454;BME280;60061;52.080;5.312;2022-08-02T09:52:54;101621.0;;;25.29;63.43
34454;BME280;60061;52.080;5.312;2022-08-02T09:54:42;101626.0;;;25.38;64.75
34454;BME280;60061;52.080;5.312;2022-08-02T09:56:39;101618.0;;;25.48;64.27
34454;BME280;60061;52.080;5.312;2022-08-02T09:58:29;101627.0;;;25.29;62.76
34454;BME280;60061;52.080;5.312;2022-08-02T10:00:15;101630.0;;;25.23;63.64
34454;BME280;60061;52.080;5.312;2022-08-02T10:02:09;101632.0;;;25.24;63.4
34454;BME280;60061;52.080;5.312;2022-08-02T10:03:57;101633.0;;;25.35;64.05
34454;BME280;60061;52.080;5.312;2022-08-02T10:07:34;101633.0;;;25.47;63.07
34454;BME280;60061;52.080;5.312;2022-08-02T10:09:21;101637.0;;;25.65;63.18
34454;BME280;60061;52.080;5.312;2022-08-02T10:11:07;101634.0;;;25.62;61.92
34454;BME280;60061;52.080;5.312;2022-08-02T10:12:55;101633.0;;;25.61;62.95
34454;BME280;60061;52.080;5.312;2022-08-02T10:14:41;101630.0;;;25.77;61.84
34454;BME280;60061;52.080;5.312;2022-08-02T10:16:32;101638.0;;;25.69;62.66
34454;BME280;60061;52.080;5.312;2022-08-02T10:20:06;101635.0;;;25.74;61.63
34454;BME280;60061;52.080;5.312;2022-08-02T10:21:56;101633.0;;;25.73;61.42
34454;BME280;60061;52.080;5.312;2022-08-02T10:23:44;101634.0;;;25.89;61.7
34454;BME280;60061;52.080;5.312;2022-08-02T10:25:33;101637.0;;;25.94;60.77
34454;BME280;60061;52.080;5.312;2022-08-02T10:27:24;101637.0;;;26.09;61.65
34454;BME280;60061;52.080;5.312;2022-08-02T10:29:16;101627.0;;;26.11;60.06
34454;BME280;60061;52.080;5.312;2022-08-02T10:31:04;101635.0;;;26.12;59.26
34454;BME280;60061;52.080;5.312;2022-08-02T10:34:46;101630.0;;;26.22;60.12
34454;BME280;60061;52.080;5.312;2022-08-02T10:38:30;101624.0;;;26.29;60.56
34454;BME280;60061;52.080;5.312;2022-08-02T10:40:41;101620.0;;;26.42;58.32
34454;BME280;60061;52.080;5.312;2022-08-02T10:42:46;101618.0;;;26.5;58.58
34454;BME280;60061;52.080;5.312;2022-08-02T10:44:35;101617.0;;;26.42;56.98
34454;BME280;60061;52.080;5.312;2022-08-02T10:46:23;101613.0;;;26.53;58.09
34454;BME280;60061;52.080;5.312;2022-08-02T10:48:14;101615.0;;;26.52;57.78
34454;BME280;60061;52.080;5.312;2022-08-02T10:50:03;101616.0;;;26.56;57.49
34454;BME280;60061;52.080;5.312;2022-08-02T10:52:22;101618.0;;;26.54;57.01
34454;BME280;60061;52.080;5.312;2022-08-02T10:54:09;101609.0;;;26.39;55.85
34454;BME280;60061;52.080;5.312;2022-08-02T10:57:44;101603.0;;;26.44;56.62
34454;BME280;60061;52.080;5.312;2022-08-02T10:59:32;101603.0;;;26.46;56.76
34454;BME280;60061;52.080;5.312;2022-08-02T11:01:28;101601.0;;;26.61;56.61
34454;BME280;60061;52.080;5.312;2022-08-02T11:03:48;101601.0;;;26.78;56.2
34454;BME280;60061;52.080;5.312;2022-08-02T11:05:34;101603.0;;;26.73;55.29
34454;BME280;60061;52.080;5.312;2022-08-02T11:07:31;101605.0;;;26.78;54.8
34454;BME280;60061;52.080;5.312;2022-08-02T11:09:28;101614.0;;;26.84;55.35
34454;BME280;60061;52.080;5.312;2022-08-02T11:11:17;101598.0;;;26.93;53.39
34454;BME280;60061;52.080;5.312;2022-08-02T11:13:06;101602.0;;;27.04;53.32